This is the latest recevied weather packets stored in our database for station/object GW1601. If no packets are shown the sender has not sent any weather packets the latest 10 day(s).
| Time | Temp. | Humidity | Pressure | Rain* | Wind** | Luminosity | Snow |
|---|---|---|---|---|---|---|---|
| 1778134169 | 5° C | 96% | 989.1 hPa | 0 mm | - | - | - |
| 1778131308 | 6.67° C | 92% | 989.1 hPa | 0 mm | - | - | - |
| 1778130222 | 6.67° C | 89% | 989.1 hPa | 0 mm | - | - | - |
| 1778125518 | 10° C | 82% | 989.1 hPa | 9.4 mm | - | - | - |
| 1778120141 | 11.67° C | 68% | 988.8 hPa | 9.4 mm | - | - | - |
| 1778117970 | 11.67° C | 66% | 988.4 hPa | 9.4 mm | - | - | - |
| 1778112948 | 12.78° C | 63% | 987.4 hPa | 9.4 mm | - | - | - |
| 1778111494 | 13.33° C | 61% | 987.1 hPa | 9.4 mm | - | - | - |
| 1778106442 | 15.56° C | 60% | 987.4 hPa | 9.4 mm | - | - | - |
| 1778105716 | 15.56° C | 55% | 987.1 hPa | 9.4 mm | - | - | - |
| 1778105358 | 15.56° C | 54% | 987.1 hPa | 9.4 mm | - | - | - |
| 1778105023 | 15.56° C | 55% | 987.1 hPa | 9.4 mm | - | - | - |
| 1778104659 | 16.11° C | 55% | 986.7 hPa | 9.4 mm | - | - | - |
| 1778102833 | 16.11° C | 52% | 986.4 hPa | 9.4 mm | - | - | - |
| 1778100331 | 17.22° C | 50% | 986.4 hPa | 9.4 mm | - | - | - |
| 1778099591 | 17.22° C | 52% | 986.1 hPa | 9.4 mm | - | - | - |
| 1778096394 | 16.67° C | 58% | 986.1 hPa | 9.4 mm | - | - | - |
| 1778094943 | 18.89° C | 51% | 986.4 hPa | 9.4 mm | - | - | - |
| 1778094221 | 17.78° C | 56% | 986.7 hPa | 9.4 mm | - | - | - |
| 1778092760 | 17.22° C | 59% | 986.1 hPa | 9.4 mm | - | - | - |
| 1778089887 | 16.67° C | 69% | 986.1 hPa | 9.4 mm | - | - | - |
| 1778085586 | 15° C | 75% | 986.4 hPa | 9.4 mm | - | - | - |
| 1778084869 | 14.44° C | 81% | 986.1 hPa | 9.4 mm | - | - | - |
| 1778084146 | 15° C | 79% | 986.7 hPa | 9.4 mm | - | - | - |
| 1778080174 | 12.78° C | 87% | 985.4 hPa | 9.4 mm | - | - | - |
* Rain since midnight (hover to see other rain measurements)
** Current wind speed in m/s (hover to see current wind gust speed)